createdAt,value
2023-03-29T00:01:07.299Z,2.78
2023-03-29T00:03:35.512Z,3.20
2023-03-29T00:06:05.553Z,3.63
2023-03-29T00:08:40.606Z,3.83
2023-03-29T00:11:08.430Z,5.80
2023-03-29T00:13:36.535Z,4.75
2023-03-29T00:16:04.366Z,2.85
2023-03-29T00:18:32.340Z,4.47
2023-03-29T00:21:01.110Z,4.13
2023-03-29T00:23:29.165Z,2.50
2023-03-29T00:25:57.522Z,2.70
2023-03-29T00:28:25.518Z,3.05
2023-03-29T00:30:55.041Z,2.17
2023-03-29T00:33:23.010Z,2.22
2023-03-29T00:35:53.514Z,2.30
2023-03-29T00:38:22.256Z,2.75
2023-03-29T00:40:52.250Z,3.30
2023-03-29T00:43:23.798Z,2.05
2023-03-29T00:49:25.614Z,2.33
2023-03-29T00:51:57.622Z,1.20
2023-03-29T00:54:33.198Z,1.42
2023-03-29T00:57:04.645Z,2.20
2023-03-29T00:59:35.597Z,4.05
2023-03-29T01:02:05.275Z,2.78
2023-03-29T01:04:36.915Z,1.80
2023-03-29T01:09:35.126Z,1.50
2023-03-29T01:12:05.204Z,2.33
2023-03-29T01:14:39.550Z,1.33
2023-03-29T01:17:07.465Z,2.13
2023-03-29T01:19:39.087Z,1.35
2023-03-29T01:25:11.601Z,1.92
2023-03-29T01:27:39.336Z,2.08
2023-03-29T01:30:10.913Z,2.00
2023-03-29T01:32:43.083Z,1.40
2023-03-29T01:35:16.312Z,3.35
2023-03-29T01:37:50.677Z,2.55
2023-03-29T01:40:18.554Z,2.10
2023-03-29T01:42:50.313Z,1.40
2023-03-29T01:45:25.075Z,1.52
2023-03-29T01:47:53.258Z,2.40
2023-03-29T01:50:33.433Z,1.65
2023-03-29T01:53:04.380Z,1.80
2023-03-29T01:55:34.445Z,2.90
2023-03-29T01:58:05.930Z,2.80
2023-03-29T02:00:34.274Z,1.45
2023-03-29T02:03:04.499Z,2.00
2023-03-29T02:05:32.601Z,2.20
2023-03-29T02:08:01.115Z,2.42
2023-03-29T02:10:29.181Z,2.55
2023-03-29T02:12:56.965Z,1.38
2023-03-29T02:15:25.012Z,2.17
2023-03-29T02:17:52.881Z,1.15
2023-03-29T02:20:26.915Z,1.77
2023-03-29T02:23:04.588Z,1.50
2023-03-29T02:25:32.718Z,3.63
2023-03-29T02:28:01.329Z,1.75
2023-03-29T02:30:34.361Z,1.92
2023-03-29T02:33:07.493Z,1.17
2023-03-29T02:35:38.372Z,1.83
2023-03-29T02:38:08.862Z,1.40
2023-03-29T02:40:37.644Z,1.98
2023-03-29T02:43:06.965Z,1.08
2023-03-29T02:45:35.975Z,1.42
2023-03-29T02:48:06.615Z,2.22
2023-03-29T02:50:45.954Z,1.30
2023-03-29T02:53:15.551Z,1.63
2023-03-29T02:55:46.816Z,1.20
2023-03-29T02:58:15.476Z,1.58
2023-03-29T03:00:46.081Z,1.33
2023-03-29T03:05:44.562Z,1.15
2023-03-29T03:08:12.564Z,1.83
2023-03-29T03:10:41.049Z,1.20
2023-03-29T03:13:08.854Z,1.55
2023-03-29T03:15:37.312Z,3.72
2023-03-29T03:18:05.471Z,1.15
2023-03-29T03:20:33.539Z,1.23
2023-03-29T03:23:03.507Z,3.00
2023-03-29T03:25:32.477Z,1.65
2023-03-29T03:28:01.206Z,3.17
2023-03-29T03:30:29.904Z,1.10
2023-03-29T03:33:16.845Z,1.50
2023-03-29T03:35:57.106Z,3.92
2023-03-29T03:38:25.420Z,1.25
2023-03-29T03:40:58.598Z,4.10
2023-03-29T03:43:27.238Z,1.17
2023-03-29T03:45:57.155Z,2.38
2023-03-29T03:48:27.092Z,6.10
2023-03-29T03:51:00.946Z,3.38
2023-03-29T03:53:34.201Z,2.08
2023-03-29T03:56:14.556Z,2.15
2023-03-29T03:59:02.538Z,1.48
2023-03-29T04:01:35.492Z,1.27
2023-03-29T04:04:14.296Z,1.42
2023-03-29T04:06:52.756Z,3.88
2023-03-29T04:09:36.185Z,1.73
2023-03-29T04:12:38.037Z,1.65
2023-03-29T04:15:07.743Z,1.48
2023-03-29T04:17:35.761Z,4.10
2023-03-29T04:20:19.595Z,2.20
2023-03-29T04:22:47.340Z,1.92
2023-03-29T04:25:15.424Z,2.30
2023-03-29T04:27:51.688Z,3.63
2023-03-29T04:30:31.042Z,1.98
2023-03-29T04:33:19.147Z,2.88
2023-03-29T04:35:52.592Z,2.30
2023-03-29T04:38:23.057Z,3.35
2023-03-29T04:40:51.906Z,1.30
2023-03-29T04:43:55.920Z,1.25
2023-03-29T04:46:28.299Z,2.90
2023-03-29T04:49:14.664Z,2.67
2023-03-29T04:54:16.425Z,1.80
2023-03-29T04:57:07.011Z,2.15
2023-03-29T04:59:46.743Z,1.85
2023-03-29T05:02:33.971Z,1.27
2023-03-29T05:05:01.942Z,1.15
2023-03-29T05:07:29.732Z,1.42
2023-03-29T05:09:57.351Z,2.95
2023-03-29T05:12:25.072Z,2.20
2023-03-29T05:14:54.028Z,3.95
2023-03-29T05:17:26.725Z,1.35
2023-03-29T05:19:57.291Z,1.42
2023-03-29T05:22:26.612Z,2.42
2023-03-29T05:24:54.453Z,1.67
2023-03-29T05:27:23.822Z,1.10
2023-03-29T05:30:06.704Z,1.15
2023-03-29T05:32:45.231Z,3.90
2023-03-29T05:35:16.024Z,1.33
2023-03-29T05:37:47.142Z,0.75
2023-03-29T05:40:14.811Z,3.03
2023-03-29T05:43:02.821Z,1.67
2023-03-29T05:45:32.338Z,1.77
2023-03-29T05:48:00.348Z,3.25
2023-03-29T05:50:27.997Z,2.25
2023-03-29T05:52:57.132Z,3.10
2023-03-29T05:55:24.854Z,2.50
2023-03-29T05:57:52.544Z,1.52
2023-03-29T06:00:24.404Z,0.60
2023-03-29T06:03:10.073Z,2.63
2023-03-29T06:05:50.003Z,0.98
2023-03-29T06:11:05.703Z,3.45
2023-03-29T06:13:52.804Z,1.85
2023-03-29T06:16:20.831Z,2.50
2023-03-29T06:18:48.687Z,1.80
2023-03-29T06:21:16.707Z,1.65
2023-03-29T06:23:45.131Z,1.15
2023-03-29T06:26:14.032Z,1.55
2023-03-29T06:28:42.002Z,2.17
2023-03-29T06:31:10.670Z,2.00
2023-03-29T06:33:43.067Z,1.15
2023-03-29T06:36:40.100Z,2.38
2023-03-29T06:39:07.959Z,1.42
2023-03-29T06:41:53.726Z,1.92
2023-03-29T06:44:33.935Z,1.27
2023-03-29T06:47:10.059Z,1.88
2023-03-29T06:49:37.760Z,1.90
2023-03-29T06:52:14.241Z,1.13
2023-03-29T06:54:42.262Z,2.75
2023-03-29T06:57:10.324Z,2.22
2023-03-29T06:59:39.221Z,6.00
2023-03-29T07:02:22.950Z,2.22
2023-03-29T07:05:17.156Z,3.10
2023-03-29T07:07:56.737Z,1.48
2023-03-29T07:10:48.931Z,4.25
2023-03-29T07:13:23.484Z,3.70
2023-03-29T07:15:53.156Z,1.25
2023-03-29T07:18:41.467Z,1.02
2023-03-29T07:21:10.566Z,2.28
2023-03-29T07:23:38.242Z,1.40
2023-03-29T07:26:11.069Z,2.10
2023-03-29T07:28:39.332Z,3.10
2023-03-29T07:31:08.034Z,2.97
2023-03-29T07:33:42.463Z,1.80
2023-03-29T07:36:11.102Z,2.45
2023-03-29T07:38:38.791Z,1.42
2023-03-29T07:41:13.819Z,4.18
2023-03-29T07:43:52.114Z,2.15
2023-03-29T07:46:25.008Z,1.77
2023-03-29T07:48:52.736Z,2.95
2023-03-29T07:51:21.431Z,2.90
2023-03-29T07:53:50.828Z,3.97
2023-03-29T07:56:47.855Z,1.98
2023-03-29T07:59:22.500Z,1.70
2023-03-29T08:02:03.065Z,2.50
2023-03-29T08:04:44.041Z,1.30
2023-03-29T08:07:21.766Z,1.20
2023-03-29T08:10:01.053Z,3.40
2023-03-29T08:13:01.135Z,1.25
2023-03-29T08:15:39.981Z,3.10
2023-03-29T08:18:17.543Z,1.50
2023-03-29T08:20:45.449Z,2.67
2023-03-29T08:23:13.129Z,1.90
2023-03-29T08:26:04.266Z,2.97
2023-03-29T08:28:32.264Z,3.83
2023-03-29T08:31:01.325Z,1.83
2023-03-29T08:33:29.483Z,1.40
2023-03-29T08:36:16.003Z,2.38
2023-03-29T08:38:43.821Z,7.60
2023-03-29T08:41:34.639Z,4.10
2023-03-29T08:44:10.664Z,2.22
2023-03-29T08:47:19.012Z,3.42
2023-03-29T08:49:48.946Z,3.25
2023-03-29T08:52:21.484Z,2.20
2023-03-29T08:54:51.941Z,2.08
2023-03-29T08:57:38.548Z,2.60
2023-03-29T09:00:23.467Z,1.45
2023-03-29T09:02:53.650Z,3.08
2023-03-29T09:05:25.145Z,1.63
2023-03-29T09:08:15.984Z,2.72
2023-03-29T09:10:47.273Z,2.10
2023-03-29T09:13:23.923Z,1.58
2023-03-29T09:15:54.617Z,1.58
2023-03-29T09:18:41.787Z,4.03
2023-03-29T09:21:22.297Z,4.13
2023-03-29T09:23:55.972Z,2.03
2023-03-29T09:27:01.525Z,2.45
2023-03-29T09:29:48.680Z,2.08
2023-03-29T09:32:23.074Z,4.80
2023-03-29T09:34:58.355Z,3.67
2023-03-29T09:37:30.745Z,1.50
2023-03-29T09:39:58.425Z,3.30
2023-03-29T09:42:40.542Z,5.88
2023-03-29T09:45:08.861Z,2.92
2023-03-29T09:47:45.837Z,2.08
2023-03-29T09:50:52.574Z,4.78
2023-03-29T09:53:22.021Z,3.58
2023-03-29T09:56:00.886Z,4.80
2023-03-29T09:58:39.617Z,4.13
2023-03-29T10:01:10.641Z,2.03
2023-03-29T10:03:40.075Z,2.10
2023-03-29T10:06:13.543Z,1.63
2023-03-29T10:08:58.954Z,3.30
2023-03-29T10:11:38.335Z,3.33
2023-03-29T10:14:13.696Z,3.03
2023-03-29T10:16:44.923Z,1.98
2023-03-29T10:19:23.266Z,2.15
2023-03-29T10:21:52.751Z,2.45
2023-03-29T10:24:21.648Z,2.28
2023-03-29T10:26:55.233Z,3.38
2023-03-29T10:29:24.018Z,2.63
2023-03-29T10:31:52.804Z,3.80
2023-03-29T10:34:25.150Z,2.08
2023-03-29T10:36:57.382Z,2.05
2023-03-29T10:39:27.081Z,2.10
2023-03-29T10:41:54.836Z,3.63
2023-03-29T10:44:26.544Z,2.63
2023-03-29T10:46:54.417Z,2.40
2023-03-29T10:49:23.185Z,1.45
2023-03-29T10:51:51.504Z,5.18
2023-03-29T10:54:21.820Z,1.10
2023-03-29T10:56:52.754Z,2.25
2023-03-29T10:59:31.609Z,2.13
2023-03-29T11:02:05.228Z,2.47
2023-03-29T11:04:38.782Z,1.48
2023-03-29T11:07:12.445Z,2.90
2023-03-29T11:09:47.680Z,4.13
2023-03-29T11:12:20.942Z,5.20
2023-03-29T11:15:07.805Z,2.28
2023-03-29T11:17:35.787Z,4.55
2023-03-29T11:20:23.740Z,2.17
2023-03-29T11:23:09.570Z,1.60
2023-03-29T11:25:43.578Z,3.38
2023-03-29T11:28:17.196Z,4.97
2023-03-29T11:30:52.449Z,3.63
2023-03-29T11:33:39.053Z,1.92
2023-03-29T11:36:17.640Z,2.88
2023-03-29T11:38:59.377Z,1.60
2023-03-29T11:41:32.738Z,2.83
2023-03-29T11:44:09.709Z,2.45
2023-03-29T11:46:42.860Z,1.25
2023-03-29T11:49:13.779Z,4.70
2023-03-29T11:51:45.901Z,3.08
2023-03-29T11:54:16.455Z,3.80
2023-03-29T11:56:56.790Z,1.48
2023-03-29T11:59:28.576Z,2.58
2023-03-29T12:02:00.415Z,3.13
2023-03-29T12:07:03.775Z,3.25
2023-03-29T12:09:40.008Z,2.67
2023-03-29T12:12:11.593Z,2.22
2023-03-29T12:14:39.213Z,1.30
2023-03-29T12:17:10.346Z,1.25
2023-03-29T12:20:01.460Z,2.70
2023-03-29T12:22:29.169Z,2.08
2023-03-29T12:24:58.235Z,4.43
2023-03-29T12:27:26.537Z,3.80
2023-03-29T12:30:03.884Z,2.15
2023-03-29T12:32:31.556Z,3.90
2023-03-29T12:35:16.161Z,4.20
2023-03-29T12:38:07.150Z,1.50
2023-03-29T12:40:57.808Z,2.33
2023-03-29T12:43:44.326Z,2.28
2023-03-29T12:46:25.604Z,3.53
2023-03-29T12:48:57.686Z,1.98
2023-03-29T12:53:54.364Z,3.80
2023-03-29T12:56:23.632Z,3.85
2023-03-29T12:59:00.489Z,4.60
2023-03-29T13:01:28.259Z,2.25
2023-03-29T13:04:03.810Z,3.08
2023-03-29T13:06:32.865Z,5.05
2023-03-29T13:09:02.149Z,2.83
2023-03-29T13:11:39.850Z,3.22
2023-03-29T13:14:14.676Z,3.58
2023-03-29T13:16:42.318Z,3.10
2023-03-29T13:19:12.634Z,2.42
2023-03-29T13:21:59.042Z,3.05
2023-03-29T13:24:36.677Z,1.88
2023-03-29T13:27:24.888Z,5.47
2023-03-29T13:30:15.618Z,3.22
2023-03-29T13:32:58.983Z,3.20
2023-03-29T13:35:37.544Z,2.40
2023-03-29T13:38:09.689Z,2.95
2023-03-29T13:40:40.391Z,2.63
2023-03-29T13:43:20.246Z,3.92
2023-03-29T13:45:53.844Z,2.10
2023-03-29T13:48:24.252Z,3.33
2023-03-29T13:50:56.934Z,3.53
2023-03-29T13:53:29.299Z,2.65
2023-03-29T13:55:58.406Z,4.68
2023-03-29T13:58:28.716Z,4.57
2023-03-29T14:01:01.151Z,3.05
2023-03-29T14:03:30.122Z,3.60
2023-03-29T14:05:59.370Z,4.15
2023-03-29T14:08:29.714Z,2.42
2023-03-29T14:11:01.705Z,1.67
2023-03-29T14:13:29.620Z,3.47
2023-03-29T14:16:11.609Z,4.00
2023-03-29T14:21:06.990Z,2.55
2023-03-29T14:23:36.877Z,3.47
2023-03-29T14:26:30.786Z,4.38
2023-03-29T14:29:01.012Z,5.00
2023-03-29T14:31:33.069Z,3.22
2023-03-29T14:34:01.416Z,3.28
2023-03-29T14:36:31.036Z,5.63
2023-03-29T14:39:01.421Z,5.28
2023-03-29T14:41:32.792Z,5.15
2023-03-29T14:44:01.023Z,5.85
2023-03-29T14:46:28.804Z,4.85
2023-03-29T14:48:57.136Z,2.35
2023-03-29T14:51:30.478Z,4.80
2023-03-29T14:53:59.414Z,4.30
2023-03-29T14:56:27.468Z,1.70
2023-03-29T14:58:56.451Z,2.35
2023-03-29T15:01:25.744Z,3.10
2023-03-29T15:03:57.832Z,4.25
2023-03-29T15:06:25.740Z,8.00
2023-03-29T15:09:04.424Z,6.53
2023-03-29T15:11:33.835Z,6.32
2023-03-29T15:14:08.953Z,4.03
2023-03-29T15:16:43.710Z,5.10
2023-03-29T15:19:17.082Z,5.53
2023-03-29T15:21:45.251Z,4.90
2023-03-29T15:24:29.698Z,2.90
2023-03-29T15:27:02.859Z,4.15
2023-03-29T15:29:36.116Z,7.03
2023-03-29T15:32:03.814Z,4.22
2023-03-29T15:34:32.401Z,4.07
2023-03-29T15:37:00.822Z,5.22
2023-03-29T15:39:29.840Z,1.77
2023-03-29T15:41:58.164Z,2.80
2023-03-29T15:44:29.792Z,3.47
2023-03-29T15:46:59.483Z,3.05
2023-03-29T15:49:27.435Z,2.38
2023-03-29T15:51:55.490Z,3.28
2023-03-29T15:54:24.502Z,3.75
2023-03-29T15:56:56.525Z,5.55
2023-03-29T15:59:24.333Z,2.90
2023-03-29T16:01:52.028Z,3.53
2023-03-29T16:04:20.627Z,3.67
2023-03-29T16:06:52.919Z,6.57
2023-03-29T16:09:21.544Z,6.22
2023-03-29T16:11:49.847Z,4.65
2023-03-29T16:14:20.753Z,5.65
2023-03-29T16:16:48.341Z,9.55
2023-03-29T16:19:16.123Z,4.90
2023-03-29T16:21:43.699Z,4.97
2023-03-29T16:24:19.921Z,4.65
2023-03-29T16:26:47.609Z,6.18
2023-03-29T16:29:17.297Z,2.90
2023-03-29T16:31:45.694Z,4.15
2023-03-29T16:34:14.878Z,6.63
2023-03-29T16:36:44.065Z,6.28
2023-03-29T16:39:13.654Z,4.38
2023-03-29T16:41:42.080Z,4.82
2023-03-29T16:44:14.626Z,4.65
2023-03-29T16:46:42.200Z,4.85
2023-03-29T16:49:13.890Z,5.63
2023-03-29T16:51:41.475Z,6.18
2023-03-29T16:54:09.497Z,6.75
2023-03-29T16:56:37.073Z,6.40
2023-03-29T16:59:04.763Z,5.85
2023-03-29T17:01:32.498Z,7.60
2023-03-29T17:04:00.224Z,5.45
2023-03-29T17:06:27.834Z,5.20
2023-03-29T17:08:55.536Z,5.63
2023-03-29T17:11:23.240Z,6.15
2023-03-29T17:13:51.036Z,5.45
2023-03-29T17:16:18.673Z,6.28
2023-03-29T17:18:46.557Z,9.18
2023-03-29T17:21:14.316Z,4.68
2023-03-29T17:23:41.903Z,5.88
2023-03-29T17:26:09.551Z,9.75
2023-03-29T17:28:37.120Z,7.15
2023-03-29T17:31:06.974Z,7.88
2023-03-29T17:33:34.938Z,6.40
2023-03-29T17:36:03.460Z,6.75
2023-03-29T17:38:33.759Z,5.50
2023-03-29T17:41:02.655Z,6.55
2023-03-29T17:43:30.303Z,7.60
2023-03-29T17:45:58.023Z,8.18
2023-03-29T17:48:25.603Z,4.88
2023-03-29T17:50:55.888Z,5.55
2023-03-29T17:53:23.467Z,4.07
2023-03-29T17:55:51.331Z,4.68
2023-03-29T17:58:19.447Z,5.10
2023-03-29T18:00:47.128Z,6.55
2023-03-29T18:03:14.817Z,10.35
2023-03-29T18:05:43.502Z,6.90
2023-03-29T18:08:12.797Z,8.90
2023-03-29T18:10:40.550Z,9.30
2023-03-29T18:13:11.163Z,10.52
2023-03-29T18:15:38.749Z,10.38
2023-03-29T18:18:06.465Z,9.55
2023-03-29T18:20:34.098Z,15.07
2023-03-29T18:23:01.757Z,7.15
2023-03-29T18:25:29.453Z,9.90
2023-03-29T18:27:57.107Z,9.18
2023-03-29T18:30:24.659Z,11.35
2023-03-29T18:32:52.987Z,10.02
2023-03-29T18:35:20.865Z,11.18
2023-03-29T18:37:48.546Z,8.90
2023-03-29T18:40:20.171Z,10.10
2023-03-29T18:42:47.869Z,7.57
2023-03-29T18:45:15.824Z,12.40
2023-03-29T18:47:43.521Z,10.90
2023-03-29T18:50:12.340Z,9.32
2023-03-29T18:52:40.019Z,6.68
2023-03-29T18:55:08.198Z,7.72
2023-03-29T18:57:35.974Z,6.85
2023-03-29T19:00:10.374Z,6.95
2023-03-29T19:02:38.519Z,4.95
2023-03-29T19:05:06.809Z,4.90
2023-03-29T19:07:34.357Z,5.43
2023-03-29T19:10:02.184Z,9.07
2023-03-29T19:12:30.294Z,6.68
2023-03-29T19:14:59.009Z,7.75
2023-03-29T19:17:27.601Z,9.57
2023-03-29T19:19:56.673Z,11.75
2023-03-29T19:22:24.274Z,6.85
2023-03-29T19:24:51.862Z,9.00
2023-03-29T19:27:19.643Z,7.78
2023-03-29T19:29:48.052Z,11.30
2023-03-29T19:32:15.821Z,10.80
2023-03-29T19:34:43.411Z,9.10
2023-03-29T19:37:11.057Z,8.63
2023-03-29T19:39:39.901Z,10.52
2023-03-29T19:42:07.870Z,10.68
2023-03-29T19:44:38.049Z,9.20
2023-03-29T19:47:06.415Z,7.68
2023-03-29T19:49:36.498Z,11.57
2023-03-29T19:52:04.417Z,11.60
2023-03-29T19:54:32.062Z,9.55
2023-03-29T19:56:59.978Z,6.15
2023-03-29T19:59:27.941Z,10.85
2023-03-29T20:01:56.748Z,11.10
2023-03-29T20:04:24.606Z,13.50
2023-03-29T20:06:52.312Z,7.78
2023-03-29T20:09:20.930Z,7.70
2023-03-29T20:11:48.525Z,10.25
2023-03-29T20:14:16.534Z,8.20
2023-03-29T20:16:44.795Z,7.05
2023-03-29T20:19:17.432Z,6.25
2023-03-29T20:21:45.242Z,7.88
2023-03-29T20:24:12.806Z,10.18
2023-03-29T20:26:40.625Z,10.77
2023-03-29T20:29:08.190Z,8.75
2023-03-29T20:31:35.939Z,8.00
2023-03-29T20:34:03.549Z,7.30
2023-03-29T20:36:31.873Z,10.57
2023-03-29T20:39:00.223Z,11.25
2023-03-29T20:41:28.099Z,11.88
2023-03-29T20:43:59.605Z,7.70
2023-03-29T20:46:33.358Z,6.25
2023-03-29T20:49:01.899Z,8.10
2023-03-29T20:51:31.703Z,8.65
2023-03-29T20:54:04.329Z,9.85
2023-03-29T20:56:38.431Z,8.13
2023-03-29T20:59:06.754Z,9.35
2023-03-29T21:01:40.545Z,10.15
2023-03-29T21:04:09.186Z,7.50
2023-03-29T21:06:39.410Z,7.97
2023-03-29T21:09:07.246Z,10.00
2023-03-29T21:11:34.860Z,9.93
2023-03-29T21:14:02.536Z,5.03
2023-03-29T21:16:30.951Z,7.65
2023-03-29T21:18:58.718Z,8.68
2023-03-29T21:21:26.358Z,6.60
2023-03-29T21:23:53.893Z,11.65
2023-03-29T21:26:23.370Z,9.38
2023-03-29T21:28:51.058Z,7.90
2023-03-29T21:31:18.735Z,7.80
2023-03-29T21:33:46.309Z,12.77
2023-03-29T21:36:14.005Z,11.23
2023-03-29T21:38:41.649Z,9.40
2023-03-29T21:41:12.656Z,9.98
2023-03-29T21:43:40.959Z,8.00
2023-03-29T21:46:08.771Z,9.88
2023-03-29T21:48:36.498Z,8.15
2023-03-29T21:51:05.141Z,7.47
2023-03-29T21:53:32.985Z,6.55
2023-03-29T21:56:00.789Z,8.27
2023-03-29T21:58:29.418Z,8.18
2023-03-29T22:00:57.149Z,14.48
2023-03-29T22:03:24.792Z,10.98
2023-03-29T22:05:56.085Z,9.50
2023-03-29T22:08:26.502Z,8.18
2023-03-29T22:10:57.702Z,6.40
2023-03-29T22:13:26.623Z,6.30
2023-03-29T22:16:04.913Z,8.13
2023-03-29T22:18:42.202Z,7.20
2023-03-29T22:21:23.409Z,14.02
2023-03-29T22:23:52.447Z,9.47
2023-03-29T22:26:21.344Z,7.07
2023-03-29T22:28:48.900Z,6.70
2023-03-29T22:31:17.270Z,10.65
2023-03-29T22:33:45.434Z,10.32
2023-03-29T22:36:14.564Z,6.45
2023-03-29T22:38:42.312Z,5.60
2023-03-29T22:41:09.912Z,9.63
2023-03-29T22:43:39.909Z,9.82
2023-03-29T22:46:08.254Z,12.77
2023-03-29T22:48:35.978Z,11.85
2023-03-29T22:51:03.843Z,9.20
2023-03-29T22:53:31.842Z,12.65
2023-03-29T22:55:59.541Z,6.90
2023-03-29T22:58:29.206Z,6.57
2023-03-29T23:00:57.816Z,10.02
2023-03-29T23:03:25.499Z,12.45
2023-03-29T23:05:57.106Z,7.10
2023-03-29T23:08:25.097Z,10.48
2023-03-29T23:10:53.357Z,10.30
2023-03-29T23:13:25.606Z,13.80
2023-03-29T23:15:55.068Z,5.43
2023-03-29T23:18:23.556Z,6.72
2023-03-29T23:20:52.506Z,8.85
2023-03-29T23:23:20.823Z,10.00
2023-03-29T23:25:49.158Z,14.25
2023-03-29T23:28:21.290Z,7.35
2023-03-29T23:30:56.828Z,11.02
2023-03-29T23:33:25.661Z,8.88
2023-03-29T23:35:53.722Z,12.20
2023-03-29T23:38:21.397Z,10.02
2023-03-29T23:41:02.035Z,7.50
2023-03-29T23:43:33.693Z,12.00
2023-03-29T23:46:02.760Z,15.57
2023-03-29T23:48:31.510Z,6.90
2023-03-29T23:50:59.112Z,11.10
2023-03-29T23:53:28.457Z,5.70
2023-03-29T23:56:01.170Z,8.70
2023-03-29T23:58:29.306Z,8.57
